Terminal Aerodrome Forecast
Issued by NWS

Home | Current Version | Previous Version | Text Only | Print | Product List | Glossary Off
Versions: 1 2 3 4 5 6 7 8 9 10 11 12 13 14 15 16 17 18 19 20 21

000
FTUS41 KCLE 161740
TAFFDY
TAF
KFDY 161740Z 1618/1718 33012G20KT P6SM SCT015 BKN025
     FM162200 33008KT P6SM OVC020
     FM170300 VRB05KT P6SM OVC015
     FM171600 20010KT P6SM SCT020 BKN090=

USA.gov is the U.S. government's official web portal to all federal, state and local government web resources and services.